Time;durP1;ratioP1;P1;durP2;ratioP2;P2;SDS_P1;SDS_P2;PMS_P1;PMS_P2;Temp;Humidity;BMP_temperature;BMP_pressure;BME280_temperature;BME280_humidity;BME280_pressure;Samples;Min_cycle;Max_cycle;Signal;HPM_P1;HPM_P2
2021/12/06 00:00:38;;;;;;;;;8.40;5.40;;;;;5.83;100.00;100765.19;4914128;28;44672;-90
2021/12/06 00:03:09;;;;;;;;;4.00;3.00;;;;;5.80;100.00;100773.22;4905502;29;44652;-90
2021/12/06 00:05:36;;;;;;;;;6.50;4.50;;;;;5.77;100.00;100761.06;4904774;29;44824;-89
2021/12/06 00:08:02;;;;;;;;;5.25;3.25;;;;;5.84;100.00;100765.09;4906370;29;45294;-90
2021/12/06 00:10:28;;;;;;;;;3.25;1.75;;;;;5.86;100.00;100775.59;4890244;29;44636;-90
2021/12/06 00:12:53;;;;;;;;;5.00;4.75;;;;;5.79;100.00;100782.91;4891121;29;44833;-89
2021/12/06 00:15:19;;;;;;;;;8.25;5.50;;;;;5.81;100.00;100782.88;4908837;29;44890;-91
2021/12/06 00:17:44;;;;;;;;;9.25;6.00;;;;;5.76;100.00;100782.22;4908650;29;46596;-89
2021/12/06 00:20:12;;;;;;;;;6.00;6.00;;;;;5.77;100.00;100781.28;4912226;29;44740;-88
2021/12/06 00:22:38;;;;;;;;;6.00;6.00;;;;;5.80;100.00;100791.69;4911786;29;45391;-90
2021/12/06 00:25:16;;;;;;;;;3.25;3.25;;;;;5.85;100.00;100797.59;4912616;29;44768;-87
2021/12/06 00:27:42;;;;;;;;;8.25;5.50;;;;;5.85;100.00;100798.47;4909169;29;46683;-89
2021/12/06 00:30:15;;;;;;;;;6.00;6.00;;;;;5.86;100.00;100789.63;4911741;29;44647;-89
2021/12/06 00:32:41;;;;;;;;;4.00;4.00;;;;;5.90;100.00;100785.06;4910630;29;44841;-90
2021/12/06 00:35:12;;;;;;;;;6.25;6.25;;;;;5.93;100.00;100779.69;4910429;29;44784;-90
2021/12/06 00:37:44;;;;;;;;;6.00;4.75;;;;;5.92;100.00;100777.97;4908210;29;45073;-89
2021/12/06 00:40:11;;;;;;;;;10.75;7.25;;;;;5.95;100.00;100800.69;4904412;29;44774;-89
2021/12/06 00:42:37;;;;;;;;;5.25;5.00;;;;;5.96;100.00;100783.97;4905450;29;44695;-89
2021/12/06 00:45:18;;;;;;;;;9.75;9.00;;;;;5.91;100.00;100792.94;4905575;29;44793;-89
2021/12/06 00:47:43;;;;;;;;;5.00;3.00;;;;;5.94;100.00;100810.38;4887569;29;46948;-89
2021/12/06 00:50:09;;;;;;;;;10.25;6.25;;;;;5.93;100.00;100813.94;4887415;29;44729;-91
2021/12/06 00:52:35;;;;;;;;;11.00;6.75;;;;;5.96;100.00;100807.69;4905136;29;44845;-89
2021/12/06 00:55:00;;;;;;;;;6.25;6.00;;;;;6.01;100.00;100821.53;4904397;29;44889;-89
2021/12/06 00:57:26;;;;;;;;;8.00;5.50;;;;;5.95;100.00;100822.66;4904325;29;46762;-89
2021/12/06 00:59:52;;;;;;;;;6.75;6.75;;;;;5.99;100.00;100824.19;4908507;29;44846;-90
2021/12/06 01:02:19;;;;;;;;;4.00;4.00;;;;;5.98;100.00;100824.28;4911847;29;44821;-90
2021/12/06 01:04:47;;;;;;;;;6.00;6.00;;;;;5.95;100.00;100834.97;4910867;29;45076;-89
2021/12/06 01:07:13;;;;;;;;;7.50;7.50;;;;;5.94;100.00;100823.56;4904675;29;45377;-89
2021/12/06 01:09:40;;;;;;;;;4.75;3.75;;;;;5.96;100.00;100828.78;4905415;29;44748;-90
2021/12/06 01:12:08;;;;;;;;;10.50;6.00;;;;;5.96;100.00;100834.06;4874741;29;44892;-89
2021/12/06 01:14:35;;;;;;;;;9.75;8.00;;;;;5.92;100.00;100839.47;4907498;29;45325;-88
2021/12/06 01:17:00;;;;;;;;;4.00;4.00;;;;;5.91;100.00;100840.41;4906522;29;45971;-89
2021/12/06 01:19:29;;;;;;;;;5.50;5.50;;;;;5.96;100.00;100844.59;4914671;29;44577;-88
2021/12/06 01:22:17;;;;;;;;;10.25;6.00;;;;;5.89;100.00;100841.34;4901840;29;44808;-88
2021/12/06 01:24:52;;;;;;;;;7.00;5.50;;;;;5.93;100.00;100840.31;4920734;29;44830;-88
2021/12/06 01:41:27;;;;;;;;;6.50;2.50;;;;;5.96;100.00;100863.06;4887792;29;44638;-89
2021/12/06 01:44:11;;;;;;;;;5.25;4.00;;;;;6.02;100.00;100874.19;4901014;29;44682;-89
2021/12/06 01:46:41;;;;;;;;;6.00;4.75;;;;;6.01;100.00;100880.38;4894527;29;44812;-88
2021/12/06 01:49:08;;;;;;;;;6.75;5.50;;;;;5.91;100.00;100886.97;4860888;29;45367;-90
2021/12/06 01:51:34;;;;;;;;;9.60;7.80;;;;;5.91;100.00;100897.50;4869496;29;44867;-90
2021/12/06 01:53:59;;;;;;;;;4.00;3.25;;;;;5.92;100.00;100894.84;4870561;29;44851;-89
2021/12/06 01:56:26;;;;;;;;;4.25;4.00;;;;;5.90;100.00;100895.81;4853265;29;44877;-88
2021/12/06 01:58:51;;;;;;;;;7.25;4.25;;;;;5.87;100.00;100901.22;4852759;29;45310;-90
2021/12/06 02:01:17;;;;;;;;;5.00;5.00;;;;;5.86;100.00;100904.78;4868634;29;44770;-89
2021/12/06 02:03:42;;;;;;;;;8.00;6.00;;;;;5.81;100.00;100906.75;4855835;29;44969;-90
2021/12/06 02:06:09;;;;;;;;;5.75;5.75;;;;;5.82;100.00;100909.31;4880605;29;44909;-89
2021/12/06 02:08:34;;;;;;;;;4.75;4.25;;;;;5.80;100.00;100919.09;4895322;29;45336;-89
2021/12/06 02:11:12;;;;;;;;;11.50;10.00;;;;;5.76;100.00;100922.78;4888278;29;44813;-92
2021/12/06 02:13:53;;;;;;;;;4.25;4.00;;;;;5.73;100.00;100924.69;4909898;29;44724;-91
2021/12/06 02:16:22;;;;;;;;;5.75;3.25;;;;;5.71;100.00;100932.66;4891249;29;45277;-90
2021/12/06 02:18:54;;;;;;;;;10.00;6.00;;;;;5.74;100.00;100947.47;4890496;29;45642;-90
2021/12/06 02:21:31;;;;;;;;;9.75;6.00;;;;;5.73;100.00;100946.63;4891992;29;45284;-91
2021/12/06 02:23:58;;;;;;;;;8.00;5.00;;;;;5.71;100.00;100942.38;4891677;29;45338;-91
2021/12/06 02:26:25;;;;;;;;;11.75;6.00;;;;;5.65;100.00;100938.19;4887646;29;44868;-85
2021/12/06 02:28:51;;;;;;;;;6.25;6.25;;;;;5.74;100.00;100944.84;4886284;29;46840;-85
2021/12/06 02:31:18;;;;;;;;;8.00;5.25;;;;;5.73;100.00;100941.34;4903737;29;44719;-84
2021/12/06 02:33:46;;;;;;;;;7.75;7.25;;;;;5.75;100.00;100942.13;4904537;29;44864;-85
2021/12/06 02:36:11;;;;;;;;;5.75;5.75;;;;;5.77;100.00;100942.94;4906199;29;45245;-85
2021/12/06 02:38:37;;;;;;;;;1.25;0.00;;;;;5.81;100.00;100938.41;4904263;29;45286;-84
2021/12/06 02:41:03;;;;;;;;;3.25;3.25;;;;;5.79;100.00;100934.94;4904089;29;45362;-83
2021/12/06 02:43:30;;;;;;;;;12.00;6.00;;;;;5.81;100.00;100941.88;4904313;29;45335;-84
2021/12/06 02:45:55;;;;;;;;;9.25;6.00;;;;;5.85;100.00;100942.59;4902618;29;45368;-85
2021/12/06 02:48:20;;;;;;;;;9.25;6.00;;;;;5.85;100.00;100943.47;4904560;29;45034;-84
2021/12/06 02:50:50;;;;;;;;;5.00;5.00;;;;;5.89;100.00;100949.44;4907401;29;44746;-85
2021/12/06 02:53:17;;;;;;;;;6.00;6.00;;;;;5.93;100.00;100943.16;4905300;29;44901;-84
2021/12/06 02:55:43;;;;;;;;;11.50;4.75;;;;;5.95;100.00;100938.69;4907858;29;44793;-84
2021/12/06 02:58:33;;;;;;;;;6.50;5.25;;;;;5.97;100.00;100934.19;4911298;29;45210;-84
2021/12/06 03:01:02;;;;;;;;;7.20;5.60;;;;;5.99;100.00;100940.22;4911042;29;44615;-84
2021/12/06 03:03:28;;;;;;;;;6.00;6.00;;;;;6.00;100.00;100936.69;4910125;29;44801;-85
2021/12/06 03:05:55;;;;;;;;;7.75;6.00;;;;;6.04;100.00;100945.28;4910240;29;44794;-85
2021/12/06 03:08:40;;;;;;;;;11.25;10.00;;;;;6.05;100.00;100947.88;4906643;29;45397;-85
2021/12/06 03:11:11;;;;;;;;;8.75;6.25;;;;;6.01;100.00;100946.31;4886279;29;44785;-84
2021/12/06 03:13:37;;;;;;;;;8.00;6.00;;;;;6.00;100.00;100955.16;4903466;29;45390;-85
2021/12/06 03:16:03;;;;;;;;;8.50;5.50;;;;;6.03;100.00;100956.78;4901344;29;44914;-85
2021/12/06 03:18:29;;;;;;;;;6.75;6.75;;;;;6.03;100.00;100960.25;4901700;29;45453;-85
2021/12/06 03:20:56;;;;;;;;;10.50;6.50;;;;;6.01;100.00;100967.41;4901781;29;45387;-84
2021/12/06 03:23:21;;;;;;;;;8.25;6.75;;;;;6.05;100.00;100963.72;4901774;29;45175;-84
2021/12/06 03:25:46;;;;;;;;;8.00;6.00;;;;;6.12;100.00;100974.81;4901173;29;45216;-84
2021/12/06 03:28:12;;;;;;;;;7.50;7.50;;;;;6.12;100.00;100973.03;4883958;29;45365;-85
2021/12/06 03:30:38;;;;;;;;;11.00;9.75;;;;;6.13;100.00;100977.38;4902445;29;44766;-86
2021/12/06 03:33:04;;;;;;;;;6.00;6.00;;;;;6.15;100.00;100974.69;4907350;29;44643;-90
2021/12/06 03:35:29;;;;;;;;;12.00;8.50;;;;;6.15;100.00;100972.06;4909145;29;45204;-90
2021/12/06 03:37:55;;;;;;;;;11.75;10.50;;;;;6.12;100.00;100983.59;4914298;29;45224;-90
2021/12/06 03:40:22;;;;;;;;;9.75;6.00;;;;;6.10;100.00;100977.53;4912127;29;45458;-89
2021/12/06 03:42:47;;;;;;;;;11.75;9.50;;;;;6.10;100.00;100979.34;4895805;29;44763;-91
2021/12/06 03:45:14;;;;;;;;;13.75;11.75;;;;;6.06;100.00;100972.47;4894333;29;45326;-89
2021/12/06 03:47:40;;;;;;;;;9.50;8.50;;;;;6.12;100.00;100977.47;4892374;29;45035;-91
2021/12/06 03:50:08;;;;;;;;;11.50;9.75;;;;;6.15;100.00;100972.06;4907261;29;45247;-91
2021/12/06 03:52:34;;;;;;;;;12.00;12.00;;;;;6.11;100.00;100991.59;4888532;29;44801;-90
2021/12/06 03:55:02;;;;;;;;;10.75;9.50;;;;;6.03;100.00;100985.78;4903319;29;45226;-91
2021/12/06 03:57:28;;;;;;;;;10.25;10.25;;;;;6.02;100.00;100994.63;4905545;29;45279;-90
2021/12/06 03:59:54;;;;;;;;;9.75;9.00;;;;;6.04;100.00;100993.63;4888534;29;44780;-90
2021/12/06 04:02:24;;;;;;;;;10.25;10.00;;;;;6.07;100.00;100990.00;4905223;29;45259;-91
2021/12/06 04:04:49;;;;;;;;;5.00;5.00;;;;;6.00;100.00;100984.16;4905521;29;45395;-91
2021/12/06 04:07:15;;;;;;;;;9.25;7.50;;;;;6.08;100.00;101002.25;4911394;29;44903;-90
2021/12/06 04:09:40;;;;;;;;;12.25;11.00;;;;;6.08;100.00;101021.56;4912842;29;44824;-91
2021/12/06 04:12:08;;;;;;;;;12.00;9.00;;;;;6.14;100.00;101023.09;4893520;29;44865;-90
2021/12/06 04:14:35;;;;;;;;;12.25;12.00;;;;;6.15;100.00;101017.75;4908937;28;44902;-90
2021/12/06 04:17:00;;;;;;;;;11.75;10.00;;;;;6.13;100.00;101022.22;4910662;29;45267;-89
2021/12/06 04:19:26;;;;;;;;;13.00;10.75;;;;;6.14;100.00;101031.88;4913562;29;45336;-90
2021/12/06 04:21:51;;;;;;;;;13.75;13.75;;;;;6.17;100.00;101044.06;4889737;29;44880;-91
2021/12/06 04:24:17;;;;;;;;;13.00;12.00;;;;;6.14;100.00;101042.44;4890597;29;45383;-91
2021/12/06 04:26:44;;;;;;;;;13.50;11.25;;;;;6.15;100.00;101028.31;4913262;29;45113;-90
2021/12/06 04:29:12;;;;;;;;;12.00;10.00;;;;;6.24;100.00;101039.38;4914715;29;44905;-90
2021/12/06 04:31:44;;;;;;;;;11.75;9.25;;;;;6.26;100.00;101048.09;4898421;29;44737;-89
2021/12/06 04:34:10;;;;;;;;;19.00;14.25;;;;;6.17;100.00;101046.69;4906179;29;44852;-90
2021/12/06 04:36:38;;;;;;;;;15.50;13.00;;;;;6.15;100.00;101041.50;4904272;29;45465;-89
2021/12/06 04:39:07;;;;;;;;;15.00;9.50;;;;;6.18;100.00;101040.50;4888765;29;45369;-90
2021/12/06 04:41:32;;;;;;;;;11.75;11.00;;;;;6.20;100.00;101045.72;4907010;29;44636;-91
2021/12/06 04:43:59;;;;;;;;;12.25;10.00;;;;;6.21;100.00;101050.06;4897999;29;44995;-89
2021/12/06 04:46:24;;;;;;;;;16.25;12.00;;;;;6.13;100.00;101048.59;4919820;29;45103;-89
2021/12/06 04:48:49;;;;;;;;;14.00;12.25;;;;;6.11;100.00;101052.25;4914254;29;44721;-92
2021/12/06 04:51:15;;;;;;;;;13.25;12.25;;;;;6.09;100.00;101069.91;4905279;29;44916;-91
2021/12/06 04:53:41;;;;;;;;;19.50;13.50;;;;;6.03;100.00;101073.66;4904105;29;44776;-89
2021/12/06 04:56:24;;;;;;;;;15.50;11.75;;;;;6.02;100.00;101081.66;4905282;29;45609;-90
2021/12/06 04:59:00;;;;;;;;;13.75;13.75;;;;;5.97;100.00;101075.72;4884745;29;44757;-90
2021/12/06 05:01:30;;;;;;;;;11.50;11.00;;;;;5.94;100.00;101081.97;4922825;28;44713;-90
2021/12/06 05:03:59;;;;;;;;;16.75;13.00;;;;;5.88;100.00;101096.22;4923698;28;44790;-91
2021/12/06 05:06:30;;;;;;;;;16.75;15.50;;;;;5.86;100.00;101094.59;4893830;29;46306;-90
2021/12/06 05:09:02;;;;;;;;;17.00;14.50;;;;;5.90;100.00;101106.75;4910744;29;44668;-90
2021/12/06 05:11:30;;;;;;;;;15.00;15.00;;;;;5.88;100.00;101100.66;4906672;29;44775;-84
2021/12/06 05:14:01;;;;;;;;;15.00;11.50;;;;;5.83;100.00;101095.56;4907656;29;44857;-84
2021/12/06 05:16:28;;;;;;;;;12.00;11.00;;;;;5.79;100.00;101107.16;4906619;29;45031;-83
2021/12/06 05:18:53;;;;;;;;;15.00;15.00;;;;;5.81;100.00;101126.41;4902589;29;44856;-85
2021/12/06 05:21:18;;;;;;;;;14.50;8.50;;;;;5.85;100.00;101127.13;4903653;29;44851;-86
2021/12/06 05:23:44;;;;;;;;;11.50;10.50;;;;;5.86;100.00;101115.69;4905411;29;45295;-85
2021/12/06 05:26:10;;;;;;;;;17.75;11.75;;;;;5.90;100.00;101122.56;4912271;29;45130;-85
2021/12/06 05:28:41;;;;;;;;;10.50;9.50;;;;;5.85;100.00;101132.41;4908782;29;45168;-86
2021/12/06 05:31:14;;;;;;;;;20.00;13.00;;;;;5.81;100.00;101126.41;4924583;29;44702;-85
2021/12/06 05:33:42;;;;;;;;;18.00;11.50;;;;;5.81;100.00;101121.16;4914564;29;44767;-87
2021/12/06 05:36:08;;;;;;;;;12.00;9.25;;;;;5.83;100.00;101123.72;4887710;29;48270;-86
2021/12/06 05:38:33;;;;;;;;;18.00;14.00;;;;;5.82;100.00;101132.56;4903439;29;44876;-86
2021/12/06 05:40:59;;;;;;;;;14.25;11.25;;;;;5.79;100.00;101140.56;4902538;29;45371;-86
2021/12/06 05:43:25;;;;;;;;;14.75;11.00;;;;;5.75;100.00;101142.47;4903540;29;44893;-86
2021/12/06 05:45:51;;;;;;;;;19.25;14.50;;;;;5.76;100.00;101131.03;4904824;29;45252;-87
2021/12/06 05:48:17;;;;;;;;;10.25;9.00;;;;;5.77;100.00;101129.25;4903066;29;44800;-85
2021/12/06 05:50:46;;;;;;;;;15.50;11.00;;;;;5.79;100.00;101136.16;4902541;29;44856;-87
2021/12/06 05:53:11;;;;;;;;;11.25;10.25;;;;;5.82;100.00;101140.47;4906461;29;45510;-85
2021/12/06 05:55:37;;;;;;;;;10.25;7.75;;;;;5.84;100.00;101142.09;4893626;29;46498;-85
2021/12/06 05:58:06;;;;;;;;;14.00;12.50;;;;;5.87;100.00;101147.25;4896258;29;45450;-86
2021/12/06 06:00:32;;;;;;;;;19.00;14.00;;;;;5.90;100.00;101141.88;4918154;28;45188;-87
2021/12/06 06:03:03;;;;;;;;;19.25;13.50;;;;;5.92;100.00;101139.19;4905189;29;44977;-87
2021/12/06 06:05:29;;;;;;;;;14.75;12.00;;;;;5.92;100.00;101144.47;4906124;29;46549;-85
2021/12/06 06:07:55;;;;;;;;;11.50;10.25;;;;;5.96;100.00;101145.22;4905429;29;44824;-86
2021/12/06 06:10:20;;;;;;;;;20.00;17.25;;;;;5.97;100.00;101149.56;4889024;29;44816;-86
2021/12/06 06:12:45;;;;;;;;;17.75;14.00;;;;;5.98;100.00;101141.56;4891578;29;45219;-86
2021/12/06 06:15:12;;;;;;;;;19.25;14.25;;;;;5.97;100.00;101141.63;4908019;29;45288;-87
2021/12/06 06:17:43;;;;;;;;;13.00;9.50;;;;;5.99;100.00;101145.91;4891960;29;45280;-86
2021/12/06 06:20:35;;;;;;;;;14.00;11.50;;;;;6.02;100.00;101153.72;4911246;29;44830;-86
2021/12/06 06:23:00;;;;;;;;;12.75;12.00;;;;;6.05;100.00;101150.09;4915407;29;44748;-87
2021/12/06 06:25:27;;;;;;;;;18.25;13.00;;;;;6.07;100.00;101151.75;4916222;29;44983;-86
2021/12/06 06:27:53;;;;;;;;;13.20;10.40;;;;;6.07;100.00;101157.00;4914908;29;44797;-86
2021/12/06 06:30:19;;;;;;;;;15.50;14.50;;;;;6.15;100.00;101159.34;4910770;29;44819;-86
2021/12/06 06:32:46;;;;;;;;;20.75;20.50;;;;;6.16;100.00;101161.06;4888456;29;44898;-87
2021/12/06 06:35:12;;;;;;;;;30.50;24.50;;;;;6.14;100.00;101165.50;4904109;29;45337;-86
2021/12/06 06:37:38;;;;;;;;;17.00;13.25;;;;;6.12;100.00;101162.94;4887353;29;44720;-86
2021/12/06 06:40:05;;;;;;;;;18.00;15.25;;;;;6.17;100.00;101170.69;4905145;29;45145;-87
2021/12/06 06:42:30;;;;;;;;;16.75;14.50;;;;;6.17;100.00;101171.53;4905911;29;45212;-87
2021/12/06 06:44:56;;;;;;;;;12.50;11.00;;;;;6.26;100.00;101180.00;4906167;29;45327;-86
2021/12/06 06:47:22;;;;;;;;;9.00;7.50;;;;;6.23;100.00;101170.41;4904187;29;45460;-87
2021/12/06 06:49:48;;;;;;;;;16.25;12.00;;;;;6.21;100.00;101166.13;4903705;29;45494;-86
2021/12/06 06:52:14;;;;;;;;;19.25;13.25;;;;;6.30;100.00;101179.81;4903705;29;44801;-85
2021/12/06 06:54:41;;;;;;;;;14.75;11.75;;;;;6.29;100.00;101182.50;4902790;29;45279;-87
2021/12/06 06:57:06;;;;;;;;;16.00;13.50;;;;;6.26;100.00;101182.63;4903257;29;45201;-87
2021/12/06 06:59:32;;;;;;;;;13.75;13.75;;;;;6.27;100.00;101181.69;4902924;29;45241;-88
2021/12/06 07:01:58;;;;;;;;;16.50;10.00;;;;;6.26;100.00;101187.91;4903374;29;44754;-87
2021/12/06 07:04:23;;;;;;;;;13.25;11.50;;;;;6.26;100.00;101194.03;4902811;29;45451;-87
2021/12/06 07:06:49;;;;;;;;;15.75;11.50;;;;;6.27;100.00;101197.53;4903133;29;44817;-86
2021/12/06 07:09:15;;;;;;;;;19.00;14.00;;;;;6.24;100.00;101201.16;4903506;29;44918;-86
2021/12/06 07:11:44;;;;;;;;;14.00;14.00;;;;;6.25;100.00;101202.88;4906536;29;45438;-86
2021/12/06 07:14:10;;;;;;;;;17.00;13.00;;;;;6.22;100.00;101203.00;4905064;29;45517;-86
2021/12/06 07:16:36;;;;;;;;;18.25;14.00;;;;;6.25;100.00;101209.94;4906366;29;44700;-87
2021/12/06 07:19:03;;;;;;;;;12.50;12.50;;;;;6.22;100.00;101218.81;4912646;29;44767;-85
2021/12/06 07:21:29;;;;;;;;;14.25;14.25;;;;;6.23;100.00;101225.81;4904977;29;44865;-87
2021/12/06 07:23:55;;;;;;;;;14.75;12.00;;;;;6.25;100.00;101237.19;4907092;29;45323;-89
2021/12/06 07:26:22;;;;;;;;;13.00;11.50;;;;;6.21;100.00;101230.31;4911646;29;44761;-88
2021/12/06 07:28:55;;;;;;;;;12.75;11.00;;;;;6.18;100.00;101217.22;4894329;29;44774;-89
2021/12/06 07:31:22;;;;;;;;;14.50;9.50;;;;;6.24;100.00;101217.00;4888590;29;44844;-88
2021/12/06 07:33:48;;;;;;;;;15.75;12.75;;;;;6.27;100.00;101226.56;4902736;29;45407;-89
2021/12/06 07:36:14;;;;;;;;;14.00;8.75;;;;;6.22;100.00;101223.25;4907606;29;44776;-93
2021/12/06 07:38:42;;;;;;;;;11.50;11.25;;;;;6.28;100.00;101244.09;4892742;29;44688;-92
2021/12/06 07:41:10;;;;;;;;;12.75;10.75;;;;;6.31;100.00;101244.84;4897174;29;44815;-93
2021/12/06 07:43:36;;;;;;;;;11.75;11.00;;;;;6.27;100.00;101216.84;4896603;29;45497;-92
2021/12/06 07:46:03;;;;;;;;;15.00;10.75;;;;;6.30;100.00;101219.38;4901644;29;44702;-92
2021/12/06 07:48:29;;;;;;;;;11.00;11.00;;;;;6.28;100.00;101212.44;4919177;29;44716;-91
2021/12/06 07:50:54;;;;;;;;;11.50;10.00;;;;;6.30;100.00;101222.00;4901710;29;44900;-92
2021/12/06 07:53:21;;;;;;;;;18.75;16.25;;;;;6.25;100.00;101218.72;4903954;29;45081;-92
2021/12/06 07:55:47;;;;;;;;;11.50;10.75;;;;;6.30;100.00;101222.00;4876377;29;44776;-86
2021/12/06 07:58:12;;;;;;;;;15.25;12.00;;;;;6.31;100.00;101217.59;4890207;29;44761;-87
2021/12/06 08:00:44;;;;;;;;;12.50;10.25;;;;;6.34;100.00;101233.31;4889384;29;45430;-91
2021/12/06 08:03:10;;;;;;;;;17.50;13.25;;;;;6.35;100.00;101235.88;4903377;29;45175;-89
2021/12/06 08:05:38;;;;;;;;;13.25;12.00;;;;;6.42;100.00;101233.81;4903190;28;44904;-90
2021/12/06 08:08:11;;;;;;;;;12.75;12.00;;;;;6.44;100.00;101227.56;4888345;29;44782;-90
2021/12/06 08:10:44;;;;;;;;;22.25;13.50;;;;;6.52;100.00;101234.31;4894006;29;44893;-89
2021/12/06 08:13:12;;;;;;;;;17.50;14.00;;;;;6.55;100.00;101231.53;4901051;29;45321;-89
2021/12/06 08:15:39;;;;;;;;;14.25;12.50;;;;;6.58;100.00;101212.94;4896451;29;45413;-88
2021/12/06 08:18:05;;;;;;;;;11.25;9.25;;;;;6.72;100.00;101218.50;4886673;29;45449;-89
2021/12/06 08:20:31;;;;;;;;;14.75;13.00;;;;;6.81;100.00;101215.44;4905193;29;45536;-89
2021/12/06 08:22:57;;;;;;;;;23.00;18.00;;;;;6.93;100.00;101227.25;4870961;29;45420;-88
2021/12/06 08:25:23;;;;;;;;;15.25;13.00;;;;;7.05;100.00;101224.06;4874950;29;44758;-87
2021/12/06 08:27:49;;;;;;;;;16.00;15.00;;;;;7.13;100.00;101210.50;4889987;29;44967;-88
2021/12/06 08:30:19;;;;;;;;;16.50;14.25;;;;;7.22;100.00;101202.19;4890936;29;44822;-87
2021/12/06 08:32:47;;;;;;;;;15.00;14.00;;;;;7.29;100.00;101200.09;4902617;29;45175;-89
2021/12/06 08:35:12;;;;;;;;;16.80;14.80;;;;;7.37;100.00;101197.97;4894827;29;45271;-88
2021/12/06 08:37:38;;;;;;;;;15.25;14.25;;;;;7.40;100.00;101196.06;4887064;29;45134;-89
2021/12/06 08:40:04;;;;;;;;;20.25;17.00;;;;;7.46;100.00;101186.97;4888822;29;44844;-88
2021/12/06 08:42:30;;;;;;;;;17.00;13.00;;;;;7.48;100.00;101193.03;4887444;29;45410;-88
2021/12/06 08:44:55;;;;;;;;;18.25;14.50;;;;;7.58;100.00;101196.97;4903237;29;45306;-85
2021/12/06 08:47:21;;;;;;;;;18.00;15.00;;;;;7.69;100.00;101197.31;4868097;29;44783;-84
2021/12/06 08:49:46;;;;;;;;;22.50;19.00;;;;;7.74;100.00;101191.81;4892668;29;45527;-84
2021/12/06 08:52:14;;;;;;;;;22.25;18.25;;;;;7.82;100.00;101187.00;4893192;29;45418;-88
2021/12/06 08:54:39;;;;;;;;;19.50;16.00;;;;;7.84;100.00;101185.16;4892381;29;45401;-88
2021/12/06 08:57:05;;;;;;;;;22.75;17.25;;;;;7.96;100.00;101176.59;4908656;29;45457;-84
2021/12/06 08:59:30;;;;;;;;;22.50;19.50;;;;;8.14;100.00;101177.50;4900784;29;44889;-84
2021/12/06 09:01:57;;;;;;;;;21.00;16.25;;;;;8.31;100.00;101174.00;4888995;29;45317;-84
2021/12/06 09:04:26;;;;;;;;;19.25;17.50;;;;;8.38;100.00;101174.59;4888000;29;45365;-84
2021/12/06 09:06:54;;;;;;;;;27.75;27.25;;;;;8.40;100.00;101185.94;4903550;29;45511;-83
2021/12/06 09:09:21;;;;;;;;;19.50;18.75;;;;;8.41;100.00;101171.75;4871999;29;45662;-83
2021/12/06 09:11:49;;;;;;;;;18.75;18.00;;;;;8.40;100.00;101175.34;4901752;29;45350;-85
2021/12/06 09:14:16;;;;;;;;;24.40;19.80;;;;;8.34;100.00;101183.59;4905134;29;45400;-85
2021/12/06 09:16:43;;;;;;;;;14.25;14.25;;;;;8.32;100.00;101183.66;4889635;29;44706;-84
2021/12/06 09:19:10;;;;;;;;;22.75;19.25;;;;;8.32;100.00;101194.25;4873969;29;44934;-85
2021/12/06 09:21:37;;;;;;;;;16.75;16.00;;;;;8.37;100.00;101199.34;4897260;29;45271;-84
2021/12/06 09:24:05;;;;;;;;;18.75;18.50;;;;;8.37;100.00;101194.91;4913138;29;44874;-84
2021/12/06 09:26:31;;;;;;;;;22.75;19.50;;;;;8.34;100.00;101187.09;4907149;29;45360;-84
2021/12/06 09:28:57;;;;;;;;;22.50;19.75;;;;;8.40;100.00;101191.25;4893254;29;45319;-88
2021/12/06 09:31:24;;;;;;;;;17.00;16.75;;;;;8.44;100.00;101196.31;4901474;29;45217;-87
2021/12/06 09:33:50;;;;;;;;;19.80;14.80;;;;;8.34;100.00;101184.44;4884688;29;45412;-87
2021/12/06 09:36:18;;;;;;;;;19.75;15.00;;;;;8.28;100.00;101174.16;4900865;29;45527;-86
2021/12/06 09:38:44;;;;;;;;;12.00;9.00;;;;;8.29;100.00;101177.66;4888557;29;45456;-83
2021/12/06 09:41:22;;;;;;;;;8.00;8.00;;;;;8.21;100.00;101176.25;4887120;29;45495;-86
2021/12/06 09:43:48;;;;;;;;;18.50;15.50;;;;;8.31;100.00;101176.63;4888601;29;45157;-83
2021/12/06 09:46:14;;;;;;;;;22.25;19.25;;;;;8.37;100.00;101179.03;4898271;29;44877;-84
2021/12/06 09:48:42;;;;;;;;;16.75;14.00;;;;;8.43;100.00;101169.91;4899558;29;44860;-85
2021/12/06 09:51:17;;;;;;;;;15.50;14.50;;;;;8.48;100.00;101175.84;4906177;29;45491;-84
2021/12/06 09:53:45;;;;;;;;;16.20;12.20;;;;;8.50;100.00;101177.44;4877554;28;45372;-83
2021/12/06 09:56:13;;;;;;;;;14.50;10.25;;;;;8.50;100.00;101172.16;4912435;28;45344;-83
2021/12/06 09:58:39;;;;;;;;;16.75;10.75;;;;;8.30;100.00;101172.28;4905166;29;45388;-84
2021/12/06 10:01:19;;;;;;;;;10.00;10.00;;;;;8.06;100.00;101173.50;4901905;29;45752;-83
2021/12/06 10:03:47;;;;;;;;;13.40;9.00;;;;;8.01;100.00;101173.75;4886324;29;44808;-84
2021/12/06 10:06:13;;;;;;;;;13.50;11.00;;;;;7.91;100.00;101169.84;4894604;29;45347;-87
2021/12/06 10:08:42;;;;;;;;;14.00;12.50;;;;;7.81;100.00;101164.13;4887462;29;44803;-86
2021/12/06 10:11:08;;;;;;;;;15.50;14.75;;;;;7.65;100.00;101164.03;4898728;29;45288;-86
2021/12/06 10:13:34;;;;;;;;;29.50;22.75;;;;;7.65;100.00;101168.47;4884526;29;45403;-85
2021/12/06 10:15:59;;;;;;;;;21.50;19.25;;;;;7.66;100.00;101173.66;4884233;29;45431;-87
2021/12/06 10:18:25;;;;;;;;;19.00;16.25;;;;;7.65;100.00;101166.66;4884948;29;45540;-86
2021/12/06 10:20:51;;;;;;;;;17.50;14.50;;;;;7.59;100.00;101161.69;4885388;29;46156;-86
2021/12/06 10:23:19;;;;;;;;;16.50;16.25;;;;;7.46;100.00;101142.03;4903204;29;44825;-86
2021/12/06 10:25:49;;;;;;;;;15.25;12.25;;;;;7.54;100.00;101142.50;4901601;29;44824;-88
2021/12/06 10:28:16;;;;;;;;;17.50;15.25;;;;;7.61;100.00;101138.66;4889871;29;44762;-87
2021/12/06 10:30:48;;;;;;;;;14.75;12.75;;;;;7.65;100.00;101140.22;4910663;29;45087;-88
2021/12/06 10:33:23;;;;;;;;;19.50;15.50;;;;;7.64;100.00;101130.59;4876415;29;45705;-87
2021/12/06 10:35:53;;;;;;;;;18.50;14.00;;;;;7.66;100.00;101127.88;4893218;29;44745;-89
2021/12/06 10:38:24;;;;;;;;;15.75;14.50;;;;;7.70;100.00;101118.84;4908065;29;44865;-88
2021/12/06 10:40:55;;;;;;;;;19.25;17.75;;;;;7.75;100.00;101102.75;4909615;29;45395;-85
2021/12/06 10:43:20;;;;;;;;;18.50;15.75;;;;;7.80;100.00;101106.03;4886144;29;45236;-85
2021/12/06 10:45:48;;;;;;;;;15.50;14.50;;;;;7.85;100.00;101102.22;4893228;29;45338;-85
2021/12/06 10:48:21;;;;;;;;;23.75;20.25;;;;;7.94;100.00;101109.69;4892650;29;44742;-87
2021/12/06 10:50:54;;;;;;;;;26.00;19.50;;;;;7.91;100.00;101101.91;4900116;29;46697;-88
2021/12/06 10:53:40;;;;;;;;;13.75;12.00;;;;;7.92;100.00;101089.53;4886249;29;45067;-84
2021/12/06 10:56:17;;;;;;;;;17.75;15.75;;;;;8.06;100.00;101095.00;4908770;28;45600;-88
2021/12/06 10:58:43;;;;;;;;;15.00;12.50;;;;;8.09;100.00;101084.25;4874155;29;44932;-88
2021/12/06 11:01:15;;;;;;;;;14.25;12.00;;;;;8.11;100.00;101082.38;4884491;29;47687;-85
2021/12/06 11:03:45;;;;;;;;;13.60;13.60;;;;;8.16;100.00;101082.16;4884643;29;44790;-86
2021/12/06 11:06:18;;;;;;;;;17.75;15.00;;;;;8.18;100.00;101072.34;4894924;29;45236;-84
2021/12/06 11:08:44;;;;;;;;;14.00;13.75;;;;;8.21;100.00;101075.66;4905538;29;45369;-88
2021/12/06 11:11:11;;;;;;;;;14.50;13.25;;;;;8.30;100.00;101078.78;4907630;29;45310;-88
2021/12/06 11:13:40;;;;;;;;;16.80;15.00;;;;;8.34;100.00;101075.91;4906296;29;44659;-88
2021/12/06 11:16:13;;;;;;;;;14.00;12.75;;;;;8.38;100.00;101068.69;4889808;29;44786;-88
2021/12/06 11:18:40;;;;;;;;;12.00;11.75;;;;;8.47;100.00;101071.72;4904201;29;44712;-89
2021/12/06 11:21:16;;;;;;;;;12.25;10.50;;;;;8.52;100.00;101066.19;4903003;29;45161;-89
2021/12/06 11:24:02;;;;;;;;;13.20;11.00;;;;;8.65;100.00;101069.00;4886260;29;44828;-89
2021/12/06 11:26:28;;;;;;;;;15.50;11.25;;;;;8.66;100.00;101065.44;4885671;29;44814;-88
2021/12/06 11:28:54;;;;;;;;;15.25;11.00;;;;;8.61;100.00;101070.13;4890077;29;44951;-88
2021/12/06 11:31:20;;;;;;;;;6.50;3.75;;;;;8.60;100.00;101069.25;4890174;29;45358;-89